TimeEDT,TemperatureF,Dew PointF,Humidity,Sea Level PressureIn,VisibilityMPH,Wind Direction,Wind SpeedMPH,Gust SpeedMPH,PrecipitationIn,Events,Conditions,WindDirDegrees,DateUTC
12:53 AM,45.0,24.1,44,29.73,10.0,NW,4.6,-,N/A,,Overcast,320,2012-10-30 04:53:00
1:53 AM,45.0,24.1,44,29.71,10.0,Variable,5.8,-,N/A,,Mostly Cloudy,0,2012-10-30 05:53:00
2:53 AM,44.1,25.0,47,29.68,10.0,West,9.2,-,N/A,,Mostly Cloudy,280,2012-10-30 06:53:00
3:53 AM,45.0,28.0,52,29.66,10.0,West,6.9,-,N/A,,Overcast,280,2012-10-30 07:53:00
4:53 AM,44.1,28.9,55,29.65,10.0,West,11.5,-,N/A,,Overcast,270,2012-10-30 08:53:00
5:53 AM,44.1,28.0,53,29.65,10.0,West,12.7,20.7,N/A,,Overcast,260,2012-10-30 09:53:00
6:53 AM,43.0,28.0,56,29.66,10.0,West,15.0,-,N/A,,Overcast,260,2012-10-30 10:53:00
7:53 AM,42.1,28.9,60,29.67,10.0,WSW,12.7,-,N/A,,Overcast,250,2012-10-30 11:53:00
8:53 AM,42.1,28.9,60,29.68,10.0,West,16.1,-,N/A,,Overcast,260,2012-10-30 12:53:00
9:53 AM,42.1,28.9,60,29.68,10.0,WSW,13.8,-,N/A,,Overcast,250,2012-10-30 13:53:00
10:53 AM,41.0,30.0,65,29.69,10.0,West,15.0,24.2,0.00,Rain,Light Rain,280,2012-10-30 14:53:00
11:53 AM,43.0,30.0,60,29.69,10.0,West,11.5,20.7,0.00,,Overcast,270,2012-10-30 15:53:00
12:53 PM,44.1,30.9,60,29.69,10.0,West,17.3,25.3,N/A,,Overcast,270,2012-10-30 16:53:00
1:53 PM,43.0,30.9,62,29.69,10.0,WSW,17.3,24.2,N/A,,Overcast,250,2012-10-30 17:53:00
2:45 PM,44.6,30.2,57,29.68,10.0,West,19.6,24.2,N/A,,Overcast,270,2012-10-30 18:45:00
2:53 PM,45.0,32.0,60,29.68,10.0,West,13.8,-,N/A,,Overcast,280,2012-10-30 18:53:00
3:53 PM,45.0,32.0,60,29.68,10.0,West,12.7,-,N/A,,Overcast,280,2012-10-30 19:53:00
4:53 PM,46.0,32.0,58,29.70,10.0,West,10.4,-,N/A,,Overcast,280,2012-10-30 20:53:00
5:53 PM,46.0,32.0,58,29.72,10.0,West,9.2,-,N/A,,Overcast,280,2012-10-30 21:53:00
6:53 PM,45.0,33.1,63,29.75,10.0,WNW,12.7,20.7,0.00,,Overcast,290,2012-10-30 22:53:00
7:53 PM,44.1,33.1,65,29.78,10.0,West,9.2,-,N/A,,Overcast,260,2012-10-30 23:53:00
8:53 PM,44.1,32.0,63,29.80,10.0,West,13.8,17.3,N/A,,Overcast,260,2012-10-31 00:53:00
9:53 PM,44.1,30.9,60,29.82,10.0,WNW,16.1,21.9,N/A,,Overcast,300,2012-10-31 01:53:00
10:53 PM,44.1,30.9,60,29.82,10.0,West,4.6,-,N/A,,Overcast,260,2012-10-31 02:53:00
11:53 PM,44.1,30.0,58,29.81,10.0,WNW,3.5,-,N/A,,Overcast,300,2012-10-31 03:53:00